sensor_id;sensor_type;location;lat;lon;timestamp;P1;durP1;ratioP1;P2;durP2;ratioP2
77076;SDS011;66003;52.286;104.306;2023-05-07T00:01:01;13.85;;;9.05;;
77076;SDS011;66003;52.286;104.306;2023-05-07T00:05:54;17.88;;;10.52;;
77076;SDS011;66003;52.286;104.306;2023-05-07T00:08:20;19.88;;;11.18;;
77076;SDS011;66003;52.286;104.306;2023-05-07T00:10:47;20.00;;;10.30;;
77076;SDS011;66003;52.286;104.306;2023-05-07T00:13:13;15.02;;;8.00;;
77076;SDS011;66003;52.286;104.306;2023-05-07T00:15:39;15.75;;;9.02;;
77076;SDS011;66003;52.286;104.306;2023-05-07T00:18:05;15.45;;;8.57;;
77076;SDS011;66003;52.286;104.306;2023-05-07T00:20:32;15.07;;;7.82;;
77076;SDS011;66003;52.286;104.306;2023-05-07T00:22:58;19.55;;;9.70;;
77076;SDS011;66003;52.286;104.306;2023-05-07T00:25:24;16.48;;;10.27;;
77076;SDS011;66003;52.286;104.306;2023-05-07T00:27:50;16.45;;;8.55;;
77076;SDS011;66003;52.286;104.306;2023-05-07T00:30:16;12.07;;;6.28;;
77076;SDS011;66003;52.286;104.306;2023-05-07T00:32:43;10.98;;;8.27;;
77076;SDS011;66003;52.286;104.306;2023-05-07T00:35:11;15.13;;;9.32;;
77076;SDS011;66003;52.286;104.306;2023-05-07T00:37:37;10.48;;;7.57;;
77076;SDS011;66003;52.286;104.306;2023-05-07T00:40:04;17.98;;;8.50;;
77076;SDS011;66003;52.286;104.306;2023-05-07T00:42:32;15.75;;;8.88;;
77076;SDS011;66003;52.286;104.306;2023-05-07T00:44:59;22.00;;;9.20;;
77076;SDS011;66003;52.286;104.306;2023-05-07T00:47:25;16.17;;;9.45;;
77076;SDS011;66003;52.286;104.306;2023-05-07T00:49:51;14.55;;;9.95;;
77076;SDS011;66003;52.286;104.306;2023-05-07T00:52:17;15.52;;;10.60;;
77076;SDS011;66003;52.286;104.306;2023-05-07T00:54:47;19.13;;;9.43;;
77076;SDS011;66003;52.286;104.306;2023-05-07T00:57:13;17.23;;;9.68;;
77076;SDS011;66003;52.286;104.306;2023-05-07T00:59:41;16.92;;;9.68;;
77076;SDS011;66003;52.286;104.306;2023-05-07T01:02:07;23.85;;;11.35;;
77076;SDS011;66003;52.286;104.306;2023-05-07T01:04:33;17.48;;;11.57;;
77076;SDS011;66003;52.286;104.306;2023-05-07T01:07:00;21.58;;;12.40;;
77076;SDS011;66003;52.286;104.306;2023-05-07T01:09:27;34.35;;;12.75;;
77076;SDS011;66003;52.286;104.306;2023-05-07T01:11:54;17.58;;;11.00;;
77076;SDS011;66003;52.286;104.306;2023-05-07T01:14:23;19.33;;;8.98;;
77076;SDS011;66003;52.286;104.306;2023-05-07T01:16:51;21.58;;;11.00;;
77076;SDS011;66003;52.286;104.306;2023-05-07T01:19:17;16.60;;;10.15;;
77076;SDS011;66003;52.286;104.306;2023-05-07T01:21:45;18.30;;;11.05;;
77076;SDS011;66003;52.286;104.306;2023-05-07T01:24:13;16.10;;;11.93;;
77076;SDS011;66003;52.286;104.306;2023-05-07T01:26:40;28.10;;;14.52;;
77076;SDS011;66003;52.286;104.306;2023-05-07T01:29:07;17.88;;;14.00;;
77076;SDS011;66003;52.286;104.306;2023-05-07T01:31:33;20.92;;;14.25;;
77076;SDS011;66003;52.286;104.306;2023-05-07T01:34:01;18.40;;;14.95;;
77076;SDS011;66003;52.286;104.306;2023-05-07T01:36:29;19.83;;;14.35;;
77076;SDS011;66003;52.286;104.306;2023-05-07T01:38:58;17.65;;;13.10;;
77076;SDS011;66003;52.286;104.306;2023-05-07T01:41:25;15.50;;;11.88;;
77076;SDS011;66003;52.286;104.306;2023-05-07T01:43:52;25.15;;;12.93;;
77076;SDS011;66003;52.286;104.306;2023-05-07T01:46:19;19.40;;;13.25;;
77076;SDS011;66003;52.286;104.306;2023-05-07T01:48:46;19.98;;;13.00;;
77076;SDS011;66003;52.286;104.306;2023-05-07T01:51:13;17.02;;;12.57;;
77076;SDS011;66003;52.286;104.306;2023-05-07T01:53:39;17.85;;;13.13;;
77076;SDS011;66003;52.286;104.306;2023-05-07T01:56:06;18.48;;;12.80;;
77076;SDS011;66003;52.286;104.306;2023-05-07T01:58:33;20.42;;;13.45;;
77076;SDS011;66003;52.286;104.306;2023-05-07T02:00:59;20.15;;;14.63;;
77076;SDS011;66003;52.286;104.306;2023-05-07T02:03:25;17.48;;;13.32;;
77076;SDS011;66003;52.286;104.306;2023-05-07T02:05:51;19.27;;;13.27;;
77076;SDS011;66003;52.286;104.306;2023-05-07T02:08:18;19.02;;;14.40;;
77076;SDS011;66003;52.286;104.306;2023-05-07T02:10:44;21.75;;;14.30;;
77076;SDS011;66003;52.286;104.306;2023-05-07T02:13:10;18.40;;;15.10;;
77076;SDS011;66003;52.286;104.306;2023-05-07T02:15:37;18.20;;;13.55;;
77076;SDS011;66003;52.286;104.306;2023-05-07T02:18:04;24.92;;;15.50;;
77076;SDS011;66003;52.286;104.306;2023-05-07T02:20:32;26.40;;;15.45;;
77076;SDS011;66003;52.286;104.306;2023-05-07T02:22:58;19.15;;;15.77;;
77076;SDS011;66003;52.286;104.306;2023-05-07T02:25:24;20.30;;;11.93;;
77076;SDS011;66003;52.286;104.306;2023-05-07T02:27:50;25.83;;;14.93;;
77076;SDS011;66003;52.286;104.306;2023-05-07T02:30:17;18.83;;;14.85;;
77076;SDS011;66003;52.286;104.306;2023-05-07T02:32:43;20.02;;;16.15;;
77076;SDS011;66003;52.286;104.306;2023-05-07T02:35:09;20.77;;;15.25;;
77076;SDS011;66003;52.286;104.306;2023-05-07T02:37:35;19.30;;;15.55;;
77076;SDS011;66003;52.286;104.306;2023-05-07T02:40:02;24.88;;;14.77;;
77076;SDS011;66003;52.286;104.306;2023-05-07T02:42:29;21.23;;;17.17;;
77076;SDS011;66003;52.286;104.306;2023-05-07T02:44:56;25.58;;;16.92;;
77076;SDS011;66003;52.286;104.306;2023-05-07T02:47:22;35.15;;;24.02;;
77076;SDS011;66003;52.286;104.306;2023-05-07T02:49:48;20.27;;;17.67;;
77076;SDS011;66003;52.286;104.306;2023-05-07T02:52:14;22.95;;;16.08;;
77076;SDS011;66003;52.286;104.306;2023-05-07T02:54:41;24.42;;;16.92;;
77076;SDS011;66003;52.286;104.306;2023-05-07T02:57:07;24.77;;;16.10;;
77076;SDS011;66003;52.286;104.306;2023-05-07T02:59:33;19.27;;;14.85;;
77076;SDS011;66003;52.286;104.306;2023-05-07T03:01:59;21.38;;;17.35;;
77076;SDS011;66003;52.286;104.306;2023-05-07T03:04:25;20.42;;;14.55;;
77076;SDS011;66003;52.286;104.306;2023-05-07T03:06:52;18.05;;;13.18;;
77076;SDS011;66003;52.286;104.306;2023-05-07T03:09:18;21.52;;;11.43;;
77076;SDS011;66003;52.286;104.306;2023-05-07T03:11:45;18.85;;;11.13;;
77076;SDS011;66003;52.286;104.306;2023-05-07T03:14:11;23.17;;;11.38;;
77076;SDS011;66003;52.286;104.306;2023-05-07T03:16:38;18.20;;;10.38;;
77076;SDS011;66003;52.286;104.306;2023-05-07T03:19:05;14.93;;;10.82;;
77076;SDS011;66003;52.286;104.306;2023-05-07T03:21:32;15.38;;;10.90;;
77076;SDS011;66003;52.286;104.306;2023-05-07T03:24:00;22.60;;;10.68;;
77076;SDS011;66003;52.286;104.306;2023-05-07T03:26:26;19.30;;;11.25;;
77076;SDS011;66003;52.286;104.306;2023-05-07T03:28:53;17.20;;;10.13;;
77076;SDS011;66003;52.286;104.306;2023-05-07T03:31:19;19.73;;;10.77;;
77076;SDS011;66003;52.286;104.306;2023-05-07T03:33:55;18.08;;;10.57;;
77076;SDS011;66003;52.286;104.306;2023-05-07T03:36:23;21.98;;;11.40;;
77076;SDS011;66003;52.286;104.306;2023-05-07T03:38:50;20.45;;;11.02;;
77076;SDS011;66003;52.286;104.306;2023-05-07T03:41:16;15.52;;;11.00;;
77076;SDS011;66003;52.286;104.306;2023-05-07T03:43:43;20.42;;;12.02;;
77076;SDS011;66003;52.286;104.306;2023-05-07T03:46:09;18.00;;;11.55;;
77076;SDS011;66003;52.286;104.306;2023-05-07T03:48:35;19.13;;;11.70;;
77076;SDS011;66003;52.286;104.306;2023-05-07T03:51:01;16.20;;;11.52;;
77076;SDS011;66003;52.286;104.306;2023-05-07T03:53:27;18.80;;;12.48;;
77076;SDS011;66003;52.286;104.306;2023-05-07T03:55:53;20.92;;;10.57;;
77076;SDS011;66003;52.286;104.306;2023-05-07T03:58:19;15.23;;;9.90;;
77076;SDS011;66003;52.286;104.306;2023-05-07T04:00:45;18.17;;;12.60;;
77076;SDS011;66003;52.286;104.306;2023-05-07T04:03:12;17.02;;;11.75;;
77076;SDS011;66003;52.286;104.306;2023-05-07T04:05:38;14.02;;;9.43;;
77076;SDS011;66003;52.286;104.306;2023-05-07T04:08:04;13.70;;;10.60;;
77076;SDS011;66003;52.286;104.306;2023-05-07T04:10:31;20.20;;;10.70;;
77076;SDS011;66003;52.286;104.306;2023-05-07T04:12:57;14.80;;;11.27;;
77076;SDS011;66003;52.286;104.306;2023-05-07T04:15:23;18.58;;;10.68;;
77076;SDS011;66003;52.286;104.306;2023-05-07T04:17:50;18.92;;;12.15;;
77076;SDS011;66003;52.286;104.306;2023-05-07T04:20:16;18.98;;;11.43;;
77076;SDS011;66003;52.286;104.306;2023-05-07T04:22:44;18.23;;;11.63;;
77076;SDS011;66003;52.286;104.306;2023-05-07T04:25:11;15.85;;;11.32;;
77076;SDS011;66003;52.286;104.306;2023-05-07T04:27:37;17.17;;;12.32;;
77076;SDS011;66003;52.286;104.306;2023-05-07T04:30:03;14.18;;;10.02;;
77076;SDS011;66003;52.286;104.306;2023-05-07T04:32:32;14.35;;;11.30;;
77076;SDS011;66003;52.286;104.306;2023-05-07T04:34:59;22.27;;;12.35;;
77076;SDS011;66003;52.286;104.306;2023-05-07T04:37:25;16.70;;;12.48;;
77076;SDS011;66003;52.286;104.306;2023-05-07T04:39:51;21.67;;;11.93;;
77076;SDS011;66003;52.286;104.306;2023-05-07T04:42:19;19.25;;;12.23;;
77076;SDS011;66003;52.286;104.306;2023-05-07T04:44:45;16.67;;;12.07;;
77076;SDS011;66003;52.286;104.306;2023-05-07T04:47:11;14.85;;;10.35;;
77076;SDS011;66003;52.286;104.306;2023-05-07T04:49:38;18.75;;;12.13;;
77076;SDS011;66003;52.286;104.306;2023-05-07T04:52:04;17.80;;;11.70;;
77076;SDS011;66003;52.286;104.306;2023-05-07T04:54:31;19.00;;;11.98;;
77076;SDS011;66003;52.286;104.306;2023-05-07T04:56:57;20.23;;;12.05;;
77076;SDS011;66003;52.286;104.306;2023-05-07T04:59:23;16.42;;;12.05;;
77076;SDS011;66003;52.286;104.306;2023-05-07T05:01:49;18.73;;;12.32;;
77076;SDS011;66003;52.286;104.306;2023-05-07T05:04:16;20.45;;;12.38;;
77076;SDS011;66003;52.286;104.306;2023-05-07T05:06:42;23.75;;;12.73;;
77076;SDS011;66003;52.286;104.306;2023-05-07T05:09:08;20.52;;;12.57;;
77076;SDS011;66003;52.286;104.306;2023-05-07T05:11:34;19.27;;;11.05;;
77076;SDS011;66003;52.286;104.306;2023-05-07T05:14:00;18.50;;;8.73;;
77076;SDS011;66003;52.286;104.306;2023-05-07T05:16:27;18.70;;;11.15;;
77076;SDS011;66003;52.286;104.306;2023-05-07T05:18:53;21.77;;;13.30;;
77076;SDS011;66003;52.286;104.306;2023-05-07T05:21:20;19.63;;;13.55;;
77076;SDS011;66003;52.286;104.306;2023-05-07T05:23:46;18.95;;;13.32;;
77076;SDS011;66003;52.286;104.306;2023-05-07T05:26:13;20.60;;;13.00;;
77076;SDS011;66003;52.286;104.306;2023-05-07T05:28:39;20.23;;;12.48;;
77076;SDS011;66003;52.286;104.306;2023-05-07T05:31:05;17.17;;;11.98;;
77076;SDS011;66003;52.286;104.306;2023-05-07T05:33:31;20.20;;;12.45;;
77076;SDS011;66003;52.286;104.306;2023-05-07T05:35:57;18.77;;;12.82;;
77076;SDS011;66003;52.286;104.306;2023-05-07T05:38:23;17.77;;;12.32;;
77076;SDS011;66003;52.286;104.306;2023-05-07T05:40:50;17.02;;;11.43;;
77076;SDS011;66003;52.286;104.306;2023-05-07T05:43:16;22.35;;;12.35;;
77076;SDS011;66003;52.286;104.306;2023-05-07T05:45:42;20.83;;;11.40;;
77076;SDS011;66003;52.286;104.306;2023-05-07T05:48:08;17.88;;;12.20;;
77076;SDS011;66003;52.286;104.306;2023-05-07T05:50:35;19.27;;;13.27;;
77076;SDS011;66003;52.286;104.306;2023-05-07T05:53:02;16.13;;;10.60;;
77076;SDS011;66003;52.286;104.306;2023-05-07T05:55:28;19.55;;;12.85;;
77076;SDS011;66003;52.286;104.306;2023-05-07T05:57:55;16.55;;;12.23;;
77076;SDS011;66003;52.286;104.306;2023-05-07T06:00:21;20.00;;;12.05;;
77076;SDS011;66003;52.286;104.306;2023-05-07T06:02:50;15.63;;;8.32;;
77076;SDS011;66003;52.286;104.306;2023-05-07T06:05:16;14.98;;;12.25;;
77076;SDS011;66003;52.286;104.306;2023-05-07T06:07:43;13.90;;;9.65;;
77076;SDS011;66003;52.286;104.306;2023-05-07T06:10:09;19.00;;;11.27;;
77076;SDS011;66003;52.286;104.306;2023-05-07T06:12:35;17.20;;;11.05;;
77076;SDS011;66003;52.286;104.306;2023-05-07T06:15:02;17.83;;;10.55;;
77076;SDS011;66003;52.286;104.306;2023-05-07T06:17:30;18.42;;;13.18;;
77076;SDS011;66003;52.286;104.306;2023-05-07T06:19:56;17.17;;;12.20;;
77076;SDS011;66003;52.286;104.306;2023-05-07T06:22:22;17.88;;;10.05;;
77076;SDS011;66003;52.286;104.306;2023-05-07T06:24:48;21.42;;;11.68;;
77076;SDS011;66003;52.286;104.306;2023-05-07T06:27:14;13.40;;;10.80;;
77076;SDS011;66003;52.286;104.306;2023-05-07T06:29:41;18.30;;;11.13;;
77076;SDS011;66003;52.286;104.306;2023-05-07T06:32:07;17.42;;;11.20;;
77076;SDS011;66003;52.286;104.306;2023-05-07T06:34:35;16.65;;;10.55;;
77076;SDS011;66003;52.286;104.306;2023-05-07T06:37:01;17.38;;;11.43;;
77076;SDS011;66003;52.286;104.306;2023-05-07T06:39:28;19.15;;;10.55;;
77076;SDS011;66003;52.286;104.306;2023-05-07T06:41:54;17.88;;;11.43;;
77076;SDS011;66003;52.286;104.306;2023-05-07T06:44:21;16.02;;;10.98;;
77076;SDS011;66003;52.286;104.306;2023-05-07T06:46:47;20.88;;;13.30;;
77076;SDS011;66003;52.286;104.306;2023-05-07T06:49:13;20.65;;;13.02;;
77076;SDS011;66003;52.286;104.306;2023-05-07T06:51:40;19.55;;;11.65;;
77076;SDS011;66003;52.286;104.306;2023-05-07T06:54:06;16.92;;;10.38;;
77076;SDS011;66003;52.286;104.306;2023-05-07T06:56:33;18.40;;;13.82;;
77076;SDS011;66003;52.286;104.306;2023-05-07T06:59:00;17.52;;;9.98;;
77076;SDS011;66003;52.286;104.306;2023-05-07T07:01:27;17.77;;;11.40;;
77076;SDS011;66003;52.286;104.306;2023-05-07T07:03:54;15.82;;;12.25;;
77076;SDS011;66003;52.286;104.306;2023-05-07T07:06:20;18.17;;;11.65;;
77076;SDS011;66003;52.286;104.306;2023-05-07T07:08:46;14.40;;;10.30;;
77076;SDS011;66003;52.286;104.306;2023-05-07T07:11:12;18.35;;;10.02;;
77076;SDS011;66003;52.286;104.306;2023-05-07T07:13:38;18.27;;;11.43;;
77076;SDS011;66003;52.286;104.306;2023-05-07T07:16:05;15.55;;;10.10;;
77076;SDS011;66003;52.286;104.306;2023-05-07T07:18:32;17.23;;;10.95;;
77076;SDS011;66003;52.286;104.306;2023-05-07T07:20:58;19.95;;;11.18;;
77076;SDS011;66003;52.286;104.306;2023-05-07T07:23:24;19.40;;;12.15;;
77076;SDS011;66003;52.286;104.306;2023-05-07T07:25:50;15.52;;;10.98;;
77076;SDS011;66003;52.286;104.306;2023-05-07T07:28:17;17.13;;;10.50;;
77076;SDS011;66003;52.286;104.306;2023-05-07T07:30:43;14.77;;;11.25;;
77076;SDS011;66003;52.286;104.306;2023-05-07T07:33:09;15.52;;;12.23;;
77076;SDS011;66003;52.286;104.306;2023-05-07T07:35:35;20.70;;;12.00;;
77076;SDS011;66003;52.286;104.306;2023-05-07T07:38:02;18.50;;;11.73;;
77076;SDS011;66003;52.286;104.306;2023-05-07T07:40:28;19.52;;;12.43;;
77076;SDS011;66003;52.286;104.306;2023-05-07T07:42:56;15.20;;;11.18;;
77076;SDS011;66003;52.286;104.306;2023-05-07T07:45:22;17.90;;;10.95;;
77076;SDS011;66003;52.286;104.306;2023-05-07T07:47:48;17.15;;;10.82;;
77076;SDS011;66003;52.286;104.306;2023-05-07T07:50:15;18.30;;;11.80;;
77076;SDS011;66003;52.286;104.306;2023-05-07T07:52:41;19.52;;;12.38;;
77076;SDS011;66003;52.286;104.306;2023-05-07T07:55:07;18.27;;;10.50;;
77076;SDS011;66003;52.286;104.306;2023-05-07T07:57:34;15.35;;;10.27;;
77076;SDS011;66003;52.286;104.306;2023-05-07T08:00:00;17.17;;;12.48;;
77076;SDS011;66003;52.286;104.306;2023-05-07T08:02:30;16.15;;;11.82;;
77076;SDS011;66003;52.286;104.306;2023-05-07T08:04:56;16.17;;;10.75;;
77076;SDS011;66003;52.286;104.306;2023-05-07T08:07:22;19.27;;;11.98;;
77076;SDS011;66003;52.286;104.306;2023-05-07T08:09:49;14.13;;;10.60;;
77076;SDS011;66003;52.286;104.306;2023-05-07T08:12:15;18.02;;;10.93;;
77076;SDS011;66003;52.286;104.306;2023-05-07T08:14:41;13.65;;;11.52;;
77076;SDS011;66003;52.286;104.306;2023-05-07T08:17:08;18.58;;;11.35;;
77076;SDS011;66003;52.286;104.306;2023-05-07T08:19:35;15.80;;;11.15;;
77076;SDS011;66003;52.286;104.306;2023-05-07T08:22:02;19.33;;;11.80;;
77076;SDS011;66003;52.286;104.306;2023-05-07T08:24:31;20.67;;;11.63;;
77076;SDS011;66003;52.286;104.306;2023-05-07T08:26:57;17.42;;;11.07;;
77076;SDS011;66003;52.286;104.306;2023-05-07T08:31:49;17.33;;;11.23;;
77076;SDS011;66003;52.286;104.306;2023-05-07T08:36:40;14.68;;;10.30;;
77076;SDS011;66003;52.286;104.306;2023-05-07T08:39:09;16.88;;;11.55;;
77076;SDS011;66003;52.286;104.306;2023-05-07T08:44:02;17.25;;;11.43;;
77076;SDS011;66003;52.286;104.306;2023-05-07T08:46:32;14.35;;;11.07;;
77076;SDS011;66003;52.286;104.306;2023-05-07T08:48:58;15.98;;;10.98;;
77076;SDS011;66003;52.286;104.306;2023-05-07T08:51:25;15.60;;;11.20;;
77076;SDS011;66003;52.286;104.306;2023-05-07T08:53:52;16.52;;;11.88;;
77076;SDS011;66003;52.286;104.306;2023-05-07T08:56:18;19.33;;;11.52;;
77076;SDS011;66003;52.286;104.306;2023-05-07T08:58:45;16.60;;;11.77;;
77076;SDS011;66003;52.286;104.306;2023-05-07T09:01:15;20.23;;;10.52;;
77076;SDS011;66003;52.286;104.306;2023-05-07T09:03:45;21.02;;;10.88;;
77076;SDS011;66003;52.286;104.306;2023-05-07T09:06:12;19.17;;;10.98;;
77076;SDS011;66003;52.286;104.306;2023-05-07T09:08:39;15.27;;;11.15;;
77076;SDS011;66003;52.286;104.306;2023-05-07T09:11:05;15.80;;;9.10;;
77076;SDS011;66003;52.286;104.306;2023-05-07T09:13:31;16.70;;;11.02;;
77076;SDS011;66003;52.286;104.306;2023-05-07T09:15:57;15.27;;;10.15;;
77076;SDS011;66003;52.286;104.306;2023-05-07T09:18:32;17.55;;;10.13;;
77076;SDS011;66003;52.286;104.306;2023-05-07T09:20:58;15.45;;;12.68;;
77076;SDS011;66003;52.286;104.306;2023-05-07T09:23:25;15.68;;;10.00;;
77076;SDS011;66003;52.286;104.306;2023-05-07T09:28:25;12.82;;;9.43;;
77076;SDS011;66003;52.286;104.306;2023-05-07T09:30:51;15.32;;;10.60;;
77076;SDS011;66003;52.286;104.306;2023-05-07T09:33:17;14.65;;;10.30;;
77076;SDS011;66003;52.286;104.306;2023-05-07T09:35:44;11.15;;;8.45;;
77076;SDS011;66003;52.286;104.306;2023-05-07T09:38:10;16.33;;;10.25;;
77076;SDS011;66003;52.286;104.306;2023-05-07T09:40:36;13.73;;;9.80;;
77076;SDS011;66003;52.286;104.306;2023-05-07T09:43:08;13.32;;;9.38;;
77076;SDS011;66003;52.286;104.306;2023-05-07T09:45:39;15.43;;;11.32;;
77076;SDS011;66003;52.286;104.306;2023-05-07T09:48:06;18.42;;;11.70;;
77076;SDS011;66003;52.286;104.306;2023-05-07T09:50:40;19.02;;;11.15;;
77076;SDS011;66003;52.286;104.306;2023-05-07T09:53:17;22.27;;;10.73;;
77076;SDS011;66003;52.286;104.306;2023-05-07T09:55:43;17.75;;;10.52;;
77076;SDS011;66003;52.286;104.306;2023-05-07T09:58:11;12.57;;;9.50;;
77076;SDS011;66003;52.286;104.306;2023-05-07T10:00:39;15.88;;;10.00;;
77076;SDS011;66003;52.286;104.306;2023-05-07T10:03:06;19.80;;;10.52;;
77076;SDS011;66003;52.286;104.306;2023-05-07T10:05:34;14.88;;;10.00;;
77076;SDS011;66003;52.286;104.306;2023-05-07T10:08:02;15.38;;;9.73;;
77076;SDS011;66003;52.286;104.306;2023-05-07T10:10:29;16.75;;;9.43;;
77076;SDS011;66003;52.286;104.306;2023-05-07T10:12:56;14.90;;;9.60;;
77076;SDS011;66003;52.286;104.306;2023-05-07T10:15:23;13.70;;;9.52;;
77076;SDS011;66003;52.286;104.306;2023-05-07T10:17:50;14.63;;;9.50;;
77076;SDS011;66003;52.286;104.306;2023-05-07T10:20:19;16.58;;;10.60;;
77076;SDS011;66003;52.286;104.306;2023-05-07T10:22:46;12.85;;;8.68;;
77076;SDS011;66003;52.286;104.306;2023-05-07T10:27:48;15.43;;;9.48;;
77076;SDS011;66003;52.286;104.306;2023-05-07T10:30:22;13.20;;;9.90;;
77076;SDS011;66003;52.286;104.306;2023-05-07T10:33:09;12.25;;;8.55;;
77076;SDS011;66003;52.286;104.306;2023-05-07T10:35:40;12.23;;;8.15;;
77076;SDS011;66003;52.286;104.306;2023-05-07T10:38:08;13.95;;;8.57;;
77076;SDS011;66003;52.286;104.306;2023-05-07T10:40:35;14.02;;;8.88;;
77076;SDS011;66003;52.286;104.306;2023-05-07T10:43:02;11.57;;;7.97;;
77076;SDS011;66003;52.286;104.306;2023-05-07T10:45:32;10.98;;;8.90;;
77076;SDS011;66003;52.286;104.306;2023-05-07T10:48:05;15.75;;;8.93;;
77076;SDS011;66003;52.286;104.306;2023-05-07T10:50:52;13.23;;;9.02;;
77076;SDS011;66003;52.286;104.306;2023-05-07T10:53:46;15.40;;;8.82;;
77076;SDS011;66003;52.286;104.306;2023-05-07T10:58:44;17.40;;;10.48;;
77076;SDS011;66003;52.286;104.306;2023-05-07T11:01:10;14.18;;;10.18;;
77076;SDS011;66003;52.286;104.306;2023-05-07T11:04:24;14.00;;;10.32;;
77076;SDS011;66003;52.286;104.306;2023-05-07T11:06:40;13.75;;;9.65;;
77076;SDS011;66003;52.286;104.306;2023-05-07T11:09:07;12.57;;;9.30;;
77076;SDS011;66003;52.286;104.306;2023-05-07T11:14:49;17.20;;;9.63;;
77076;SDS011;66003;52.286;104.306;2023-05-07T11:17:10;18.15;;;11.13;;
77076;SDS011;66003;52.286;104.306;2023-05-07T11:19:55;21.42;;;10.15;;
77076;SDS011;66003;52.286;104.306;2023-05-07T11:25:01;13.32;;;9.07;;
77076;SDS011;66003;52.286;104.306;2023-05-07T11:27:29;13.95;;;9.88;;
77076;SDS011;66003;52.286;104.306;2023-05-07T11:29:56;12.40;;;8.10;;
77076;SDS011;66003;52.286;104.306;2023-05-07T11:34:51;10.68;;;6.93;;
77076;SDS011;66003;52.286;104.306;2023-05-07T11:37:21;10.50;;;7.28;;
77076;SDS011;66003;52.286;104.306;2023-05-07T11:39:48;10.88;;;7.18;;
77076;SDS011;66003;52.286;104.306;2023-05-07T11:42:29;10.00;;;7.57;;
77076;SDS011;66003;52.286;104.306;2023-05-07T11:44:57;11.75;;;7.70;;
77076;SDS011;66003;52.286;104.306;2023-05-07T11:47:24;11.80;;;6.72;;
77076;SDS011;66003;52.286;104.306;2023-05-07T11:49:53;16.65;;;7.28;;
77076;SDS011;66003;52.286;104.306;2023-05-07T11:52:21;9.50;;;5.20;;
77076;SDS011;66003;52.286;104.306;2023-05-07T11:54:51;11.13;;;5.68;;
77076;SDS011;66003;52.286;104.306;2023-05-07T11:57:19;11.02;;;7.97;;
77076;SDS011;66003;52.286;104.306;2023-05-07T11:59:46;12.60;;;7.97;;
77076;SDS011;66003;52.286;104.306;2023-05-07T12:02:14;14.25;;;8.05;;
77076;SDS011;66003;52.286;104.306;2023-05-07T12:04:41;5.97;;;2.28;;
77076;SDS011;66003;52.286;104.306;2023-05-07T12:07:16;13.13;;;8.15;;
77076;SDS011;66003;52.286;104.306;2023-05-07T12:09:44;17.30;;;7.75;;
77076;SDS011;66003;52.286;104.306;2023-05-07T12:12:13;12.02;;;7.63;;
77076;SDS011;66003;52.286;104.306;2023-05-07T12:14:43;11.48;;;7.05;;
77076;SDS011;66003;52.286;104.306;2023-05-07T12:17:11;12.60;;;6.95;;
77076;SDS011;66003;52.286;104.306;2023-05-07T12:19:39;10.20;;;5.18;;
77076;SDS011;66003;52.286;104.306;2023-05-07T12:22:07;12.32;;;7.22;;
77076;SDS011;66003;52.286;104.306;2023-05-07T12:24:47;9.80;;;7.43;;
77076;SDS011;66003;52.286;104.306;2023-05-07T12:27:15;14.63;;;9.15;;
77076;SDS011;66003;52.286;104.306;2023-05-07T12:29:57;19.73;;;10.30;;
77076;SDS011;66003;52.286;104.306;2023-05-07T12:32:30;28.00;;;15.38;;
77076;SDS011;66003;52.286;104.306;2023-05-07T12:35:01;22.10;;;15.32;;
77076;SDS011;66003;52.286;104.306;2023-05-07T12:37:30;14.38;;;9.23;;
77076;SDS011;66003;52.286;104.306;2023-05-07T12:40:09;18.65;;;10.43;;
77076;SDS011;66003;52.286;104.306;2023-05-07T12:42:37;10.20;;;8.30;;
77076;SDS011;66003;52.286;104.306;2023-05-07T12:45:09;11.27;;;7.00;;
77076;SDS011;66003;52.286;104.306;2023-05-07T12:47:44;11.73;;;7.72;;
77076;SDS011;66003;52.286;104.306;2023-05-07T12:50:12;10.15;;;5.70;;
77076;SDS011;66003;52.286;104.306;2023-05-07T12:52:39;10.48;;;7.03;;
77076;SDS011;66003;52.286;104.306;2023-05-07T12:55:07;7.78;;;5.00;;
77076;SDS011;66003;52.286;104.306;2023-05-07T12:57:40;8.65;;;6.53;;
77076;SDS011;66003;52.286;104.306;2023-05-07T13:00:13;7.63;;;4.88;;
77076;SDS011;66003;52.286;104.306;2023-05-07T13:02:40;8.18;;;5.65;;
77076;SDS011;66003;52.286;104.306;2023-05-07T13:05:09;8.00;;;5.60;;
77076;SDS011;66003;52.286;104.306;2023-05-07T13:10:03;12.00;;;6.50;;
77076;SDS011;66003;52.286;104.306;2023-05-07T13:12:31;13.50;;;7.72;;
77076;SDS011;66003;52.286;104.306;2023-05-07T13:14:58;9.45;;;5.22;;
77076;SDS011;66003;52.286;104.306;2023-05-07T13:17:24;8.88;;;5.88;;
77076;SDS011;66003;52.286;104.306;2023-05-07T13:19:51;7.50;;;4.32;;
77076;SDS011;66003;52.286;104.306;2023-05-07T13:22:17;13.82;;;8.77;;
77076;SDS011;66003;52.286;104.306;2023-05-07T13:24:43;13.75;;;6.80;;
77076;SDS011;66003;52.286;104.306;2023-05-07T13:27:10;14.88;;;9.20;;
77076;SDS011;66003;52.286;104.306;2023-05-07T13:29:36;27.65;;;10.55;;
77076;SDS011;66003;52.286;104.306;2023-05-07T13:32:02;21.73;;;8.85;;
77076;SDS011;66003;52.286;104.306;2023-05-07T13:36:54;15.52;;;6.38;;
77076;SDS011;66003;52.286;104.306;2023-05-07T13:39:20;17.80;;;8.30;;
77076;SDS011;66003;52.286;104.306;2023-05-07T13:41:47;14.68;;;6.03;;
77076;SDS011;66003;52.286;104.306;2023-05-07T13:44:13;27.67;;;8.93;;
77076;SDS011;66003;52.286;104.306;2023-05-07T13:49:05;21.23;;;8.15;;
77076;SDS011;66003;52.286;104.306;2023-05-07T13:51:31;29.75;;;11.82;;
77076;SDS011;66003;52.286;104.306;2023-05-07T13:53:57;14.45;;;7.47;;
77076;SDS011;66003;52.286;104.306;2023-05-07T13:58:50;8.82;;;3.88;;
77076;SDS011;66003;52.286;104.306;2023-05-07T14:01:16;9.43;;;5.20;;
77076;SDS011;66003;52.286;104.306;2023-05-07T14:03:42;10.63;;;4.75;;
77076;SDS011;66003;52.286;104.306;2023-05-07T14:06:09;9.07;;;3.40;;
77076;SDS011;66003;52.286;104.306;2023-05-07T14:08:35;8.45;;;5.57;;
77076;SDS011;66003;52.286;104.306;2023-05-07T14:11:01;9.45;;;5.78;;
77076;SDS011;66003;52.286;104.306;2023-05-07T14:13:27;12.20;;;5.30;;
77076;SDS011;66003;52.286;104.306;2023-05-07T14:15:55;6.18;;;3.83;;
77076;SDS011;66003;52.286;104.306;2023-05-07T14:18:21;7.45;;;4.28;;
77076;SDS011;66003;52.286;104.306;2023-05-07T14:20:48;7.40;;;4.85;;
77076;SDS011;66003;52.286;104.306;2023-05-07T14:23:14;8.38;;;4.65;;
77076;SDS011;66003;52.286;104.306;2023-05-07T14:25:42;7.28;;;4.50;;
77076;SDS011;66003;52.286;104.306;2023-05-07T14:28:09;9.15;;;3.92;;
77076;SDS011;66003;52.286;104.306;2023-05-07T14:30:35;9.40;;;4.78;;
77076;SDS011;66003;52.286;104.306;2023-05-07T14:33:02;9.93;;;6.13;;
77076;SDS011;66003;52.286;104.306;2023-05-07T14:35:29;14.35;;;7.70;;
77076;SDS011;66003;52.286;104.306;2023-05-07T14:37:55;7.88;;;5.38;;